createdAt,value
2022-08-29T00:03:00.404Z,9.20
2022-08-29T00:06:07.849Z,7.30
2022-08-29T00:09:15.729Z,8.18
2022-08-29T00:12:22.270Z,8.00
2022-08-29T00:15:44.520Z,7.38
2022-08-29T00:18:51.573Z,7.30
2022-08-29T00:21:56.949Z,8.55
2022-08-29T00:25:05.853Z,8.45
2022-08-29T00:28:11.573Z,6.90
2022-08-29T00:31:17.220Z,6.90
2022-08-29T00:34:23.145Z,7.18
2022-08-29T00:37:28.944Z,7.63
2022-08-29T00:40:40.510Z,7.15
2022-08-29T00:43:46.343Z,8.35
2022-08-29T00:46:55.651Z,8.70
2022-08-29T00:50:01.425Z,9.07
2022-08-29T00:53:09.381Z,7.82
2022-08-29T00:56:19.972Z,7.40
2022-08-29T00:59:29.731Z,8.63
2022-08-29T01:02:40.256Z,9.43
2022-08-29T01:05:46.367Z,7.70
2022-08-29T01:08:57.263Z,8.73
2022-08-29T01:12:19.551Z,7.15
2022-08-29T01:15:25.520Z,8.13
2022-08-29T01:18:33.496Z,10.30
2022-08-29T01:21:47.520Z,8.27
2022-08-29T01:24:56.608Z,9.43
2022-08-29T01:28:08.972Z,8.02
2022-08-29T01:34:42.236Z,8.30
2022-08-29T01:37:48.233Z,8.07
2022-08-29T01:40:57.327Z,6.43
2022-08-29T01:44:02.788Z,8.23
2022-08-29T01:47:11.528Z,10.10
2022-08-29T01:50:18.905Z,7.72
2022-08-29T01:53:24.536Z,8.57
2022-08-29T01:56:34.806Z,8.63
2022-08-29T01:59:40.656Z,7.18
2022-08-29T02:02:46.044Z,6.28
2022-08-29T02:05:51.697Z,6.65
2022-08-29T02:08:57.748Z,7.13
2022-08-29T02:12:07.386Z,7.93
2022-08-29T02:15:13.926Z,6.85
2022-08-29T02:18:19.919Z,6.30
2022-08-29T02:21:27.511Z,6.07
2022-08-29T02:24:33.637Z,8.00
2022-08-29T02:27:42.660Z,7.63
2022-08-29T02:30:55.817Z,7.53
2022-08-29T02:34:02.144Z,8.45
2022-08-29T02:37:09.254Z,7.93
2022-08-29T02:40:14.832Z,6.95
2022-08-29T02:43:23.844Z,8.00
2022-08-29T02:46:29.615Z,7.22
2022-08-29T02:49:35.286Z,6.03
2022-08-29T02:52:41.953Z,7.00
2022-08-29T02:55:48.937Z,6.50
2022-08-29T02:58:56.897Z,7.68
2022-08-29T03:02:02.563Z,9.48
2022-08-29T03:05:09.514Z,5.65
2022-08-29T03:08:16.759Z,7.85
2022-08-29T03:11:22.825Z,7.30
2022-08-29T03:14:31.195Z,6.88
2022-08-29T03:17:37.361Z,7.30
2022-08-29T03:20:43.430Z,8.07
2022-08-29T03:23:48.757Z,7.95
2022-08-29T03:26:56.698Z,8.27
2022-08-29T03:30:04.999Z,7.28
2022-08-29T03:33:11.971Z,6.65
2022-08-29T03:36:17.596Z,7.25
2022-08-29T03:39:24.031Z,8.25
2022-08-29T03:42:30.127Z,5.00
2022-08-29T03:45:38.573Z,6.05
2022-08-29T03:48:43.860Z,7.13
2022-08-29T03:51:50.197Z,5.50
2022-08-29T03:54:56.060Z,7.72
2022-08-29T03:58:02.723Z,7.68
2022-08-29T04:01:10.797Z,6.05
2022-08-29T04:04:36.572Z,5.70
2022-08-29T04:07:44.233Z,6.07
2022-08-29T04:10:50.185Z,6.60
2022-08-29T04:13:56.865Z,7.35
2022-08-29T04:17:05.137Z,10.10
2022-08-29T04:20:12.433Z,9.93
2022-08-29T04:23:18.647Z,6.80
2022-08-29T04:26:39.196Z,9.05
2022-08-29T04:29:48.445Z,8.15
2022-08-29T04:32:56.556Z,7.65
2022-08-29T04:36:02.177Z,8.32
2022-08-29T04:39:08.725Z,7.75
2022-08-29T04:42:18.226Z,7.05
2022-08-29T04:45:26.349Z,7.80
2022-08-29T04:48:34.563Z,8.82
2022-08-29T04:51:40.764Z,8.40
2022-08-29T04:54:46.389Z,9.32
2022-08-29T04:57:52.221Z,8.57
2022-08-29T05:00:57.997Z,9.93
2022-08-29T05:04:07.880Z,7.68
2022-08-29T05:07:16.872Z,8.25
2022-08-29T05:10:23.716Z,10.65
2022-08-29T05:13:29.704Z,11.40
2022-08-29T05:16:37.336Z,7.22
2022-08-29T05:19:45.612Z,8.80
2022-08-29T05:22:50.952Z,9.77
2022-08-29T05:25:59.568Z,10.73
2022-08-29T05:29:05.372Z,9.20
2022-08-29T05:32:16.101Z,7.53
2022-08-29T05:35:24.293Z,10.73
2022-08-29T05:38:29.924Z,8.38
2022-08-29T05:41:36.364Z,8.60
2022-08-29T05:44:44.348Z,7.55
2022-08-29T05:47:51.224Z,7.38
2022-08-29T05:50:59.952Z,10.20
2022-08-29T05:54:05.557Z,10.07
2022-08-29T05:57:18.207Z,7.65
2022-08-29T06:00:24.733Z,11.00
2022-08-29T06:03:30.573Z,7.38
2022-08-29T06:06:38.597Z,6.63
2022-08-29T06:09:45.945Z,6.57
2022-08-29T06:12:51.292Z,9.40
2022-08-29T06:15:57.535Z,7.60
2022-08-29T06:19:03.381Z,8.93
2022-08-29T06:22:13.329Z,8.10
2022-08-29T06:28:46.545Z,8.95
2022-08-29T06:31:51.930Z,10.07
2022-08-29T06:34:57.581Z,9.23
2022-08-29T06:38:05.508Z,8.85
2022-08-29T06:41:14.394Z,8.68
2022-08-29T06:44:21.498Z,8.57
2022-08-29T06:47:27.158Z,11.02
2022-08-29T06:50:32.516Z,8.52
2022-08-29T06:53:42.270Z,7.43
2022-08-29T06:56:48.581Z,13.85
2022-08-29T06:59:54.269Z,8.10
2022-08-29T07:02:59.762Z,8.10
2022-08-29T07:06:05.712Z,9.50
2022-08-29T07:09:14.193Z,7.43
2022-08-29T07:12:19.822Z,11.90
2022-08-29T07:15:26.437Z,12.93
2022-08-29T07:18:32.153Z,7.55
2022-08-29T07:21:37.717Z,6.45
2022-08-29T07:24:45.979Z,7.72
2022-08-29T07:27:53.505Z,7.25
2022-08-29T07:30:59.336Z,10.20
2022-08-29T07:34:05.296Z,5.47
2022-08-29T07:37:11.073Z,9.07
2022-08-29T07:40:20.072Z,8.75
2022-08-29T07:43:27.970Z,7.43
2022-08-29T07:46:33.562Z,8.18
2022-08-29T07:49:42.004Z,6.63
2022-08-29T07:52:47.929Z,6.07
2022-08-29T07:55:56.201Z,5.75
2022-08-29T07:59:02.332Z,8.52
2022-08-29T08:02:08.098Z,7.38
2022-08-29T08:05:13.672Z,6.72
2022-08-29T08:08:20.182Z,6.20
2022-08-29T08:11:30.526Z,6.25
2022-08-29T08:14:37.011Z,5.07
2022-08-29T08:17:44.181Z,6.20
2022-08-29T08:20:51.144Z,5.30
2022-08-29T08:23:57.065Z,5.47
2022-08-29T08:27:05.541Z,7.88
2022-08-29T08:30:12.509Z,7.38
2022-08-29T08:33:18.173Z,8.32
2022-08-29T08:36:26.119Z,7.53
2022-08-29T08:39:32.760Z,7.57
2022-08-29T08:42:45.172Z,9.27
2022-08-29T08:45:50.877Z,5.65
2022-08-29T08:49:00.665Z,6.68
2022-08-29T08:52:15.817Z,4.57
2022-08-29T08:58:45.201Z,5.20
2022-08-29T09:02:06.597Z,4.53
2022-08-29T09:05:31.452Z,5.78
2022-08-29T09:08:48.240Z,4.82
2022-08-29T09:12:03.628Z,5.15
2022-08-29T09:15:16.106Z,4.82
2022-08-29T09:18:31.641Z,5.85
2022-08-29T09:21:49.635Z,7.78
2022-08-29T09:25:00.955Z,5.60
2022-08-29T09:28:09.029Z,6.00
2022-08-29T09:31:24.457Z,5.70
2022-08-29T09:38:07.638Z,6.00
2022-08-29T09:41:15.373Z,3.97
2022-08-29T09:44:25.401Z,6.25
2022-08-29T09:47:35.806Z,5.65
2022-08-29T09:50:41.489Z,3.80
2022-08-29T09:53:47.285Z,5.53
2022-08-29T09:56:58.571Z,6.30
2022-08-29T10:00:15.697Z,5.80
2022-08-29T10:03:26.332Z,6.03
2022-08-29T10:06:34.280Z,4.70
2022-08-29T10:09:40.012Z,5.97
2022-08-29T10:12:54.198Z,6.68
2022-08-29T10:16:07.299Z,5.40
2022-08-29T10:19:21.216Z,4.28
2022-08-29T10:22:38.929Z,6.95
2022-08-29T10:25:44.881Z,4.03
2022-08-29T10:28:55.409Z,4.88
2022-08-29T10:32:10.138Z,4.57
2022-08-29T10:35:27.809Z,4.22
2022-08-29T10:38:48.403Z,6.55
2022-08-29T10:42:01.016Z,5.35
2022-08-29T10:45:18.491Z,3.60
2022-08-29T10:48:32.097Z,5.20
2022-08-29T10:51:49.916Z,4.07
2022-08-29T10:55:03.421Z,4.15
2022-08-29T10:58:16.996Z,4.45
2022-08-29T11:01:26.211Z,3.65
2022-08-29T11:04:37.511Z,4.75
2022-08-29T11:07:51.177Z,5.38
2022-08-29T11:10:56.550Z,4.10
2022-08-29T11:14:06.140Z,5.45
2022-08-29T11:17:16.004Z,3.42
2022-08-29T11:20:26.580Z,4.93
2022-08-29T11:23:41.429Z,7.30
2022-08-29T11:26:58.157Z,6.22
2022-08-29T11:30:08.030Z,6.28
2022-08-29T11:33:27.989Z,9.48
2022-08-29T11:36:50.972Z,4.57
2022-08-29T11:40:10.377Z,6.88
2022-08-29T11:43:21.461Z,4.90
2022-08-29T11:46:39.516Z,7.15
2022-08-29T11:49:48.561Z,10.43
2022-08-29T11:52:58.453Z,5.93
2022-08-29T11:56:33.560Z,7.90
2022-08-29T12:00:01.337Z,6.35
2022-08-29T12:03:15.139Z,7.40
2022-08-29T12:06:57.538Z,3.92
2022-08-29T12:10:10.721Z,5.82
2022-08-29T12:15:48.171Z,3.92
2022-08-29T12:18:58.145Z,4.10
2022-08-29T12:22:03.616Z,4.50
2022-08-29T12:25:32.715Z,5.95
2022-08-29T12:28:52.060Z,6.05
2022-08-29T12:32:32.157Z,8.68
2022-08-29T12:36:05.747Z,4.72
2022-08-29T12:39:35.754Z,4.32
2022-08-29T12:42:51.567Z,4.95
2022-08-29T12:45:58.744Z,3.65
2022-08-29T12:49:11.529Z,3.42
2022-08-29T12:52:27.942Z,4.28
2022-08-29T12:55:40.004Z,2.97
2022-08-29T12:58:48.182Z,4.85
2022-08-29T13:01:56.401Z,2.72
2022-08-29T13:05:02.686Z,2.03
2022-08-29T13:08:13.645Z,3.15
2022-08-29T13:11:23.530Z,2.35
2022-08-29T13:14:28.865Z,5.78
2022-08-29T13:17:36.411Z,3.40
2022-08-29T13:20:48.722Z,2.38
2022-08-29T13:24:05.932Z,3.47
2022-08-29T13:27:11.511Z,4.30
2022-08-29T13:30:25.453Z,2.88
2022-08-29T13:33:35.472Z,2.58
2022-08-29T13:36:46.947Z,2.55
2022-08-29T13:39:55.096Z,2.28
2022-08-29T13:43:02.337Z,2.40
2022-08-29T13:46:18.348Z,2.53
2022-08-29T13:49:25.690Z,2.38
2022-08-29T13:52:32.333Z,3.92
2022-08-29T13:55:43.280Z,2.47
2022-08-29T13:58:48.577Z,4.97
2022-08-29T14:02:11.217Z,3.90
2022-08-29T14:05:17.475Z,4.32
2022-08-29T14:08:23.144Z,2.00
2022-08-29T14:11:31.273Z,2.95
2022-08-29T14:14:37.220Z,3.83
2022-08-29T14:17:43.791Z,3.03
2022-08-29T14:20:49.449Z,2.67
2022-08-29T14:23:54.752Z,3.05
2022-08-29T14:27:05.009Z,3.67
2022-08-29T14:30:13.763Z,1.83
2022-08-29T14:33:20.087Z,2.83
2022-08-29T14:38:02.986Z,2.22
2022-08-29T14:41:08.692Z,3.65
